sensor_id;sensor_type;location;lat;lon;timestamp;temperature;humidity
13354;DHT22;6746;50.892;4.064;2024-03-23T00:54:44;7.10;99.90
13354;DHT22;6746;50.892;4.064;2024-03-23T00:57:32;7.00;99.90
13354;DHT22;6746;50.892;4.064;2024-03-23T01:00:11;7.00;99.90
13354;DHT22;6746;50.892;4.064;2024-03-23T01:02:49;6.90;99.90
13354;DHT22;6746;50.892;4.064;2024-03-23T01:05:30;6.90;99.90
13354;DHT22;6746;50.892;4.064;2024-03-23T01:08:08;6.90;99.90
13354;DHT22;6746;50.892;4.064;2024-03-23T01:10:58;6.80;99.90
13354;DHT22;6746;50.892;4.064;2024-03-23T01:13:39;6.90;99.90
13354;DHT22;6746;50.892;4.064;2024-03-23T01:16:17;6.90;99.90
13354;DHT22;6746;50.892;4.064;2024-03-23T01:18:55;6.90;99.90
13354;DHT22;6746;50.892;4.064;2024-03-23T01:21:43;6.90;99.90
13354;DHT22;6746;50.892;4.064;2024-03-23T01:24:22;7.10;99.90
13354;DHT22;6746;50.892;4.064;2024-03-23T01:27:00;7.10;99.90
13354;DHT22;6746;50.892;4.064;2024-03-23T01:29:43;7.20;99.90
13354;DHT22;6746;50.892;4.064;2024-03-23T01:32:21;7.30;99.90
13354;DHT22;6746;50.892;4.064;2024-03-23T01:34:59;7.30;99.90
13354;DHT22;6746;50.892;4.064;2024-03-23T01:37:38;7.40;99.90
13354;DHT22;6746;50.892;4.064;2024-03-23T01:40:19;7.50;99.90
13354;DHT22;6746;50.892;4.064;2024-03-23T01:42:58;7.60;99.90
13354;DHT22;6746;50.892;4.064;2024-03-23T01:45:38;7.60;99.90
13354;DHT22;6746;50.892;4.064;2024-03-23T01:48:16;7.70;99.90
13354;DHT22;6746;50.892;4.064;2024-03-23T01:50:55;7.70;99.90
13354;DHT22;6746;50.892;4.064;2024-03-23T01:53:33;7.70;99.90
13354;DHT22;6746;50.892;4.064;2024-03-23T01:56:11;7.70;99.90
13354;DHT22;6746;50.892;4.064;2024-03-23T01:58:49;7.80;99.90
13354;DHT22;6746;50.892;4.064;2024-03-23T02:01:37;7.80;99.90
13354;DHT22;6746;50.892;4.064;2024-03-23T02:04:15;7.80;99.90
13354;DHT22;6746;50.892;4.064;2024-03-23T02:06:54;7.70;99.90
13354;DHT22;6746;50.892;4.064;2024-03-23T02:09:42;7.70;99.90
13354;DHT22;6746;50.892;4.064;2024-03-23T02:12:30;7.70;99.90
13354;DHT22;6746;50.892;4.064;2024-03-23T02:15:13;7.80;99.90
13354;DHT22;6746;50.892;4.064;2024-03-23T02:17:52;7.70;99.90
13354;DHT22;6746;50.892;4.064;2024-03-23T02:20:33;7.70;99.90
13354;DHT22;6746;50.892;4.064;2024-03-23T02:23:14;7.70;99.90
13354;DHT22;6746;50.892;4.064;2024-03-23T02:26:07;7.70;99.90
13354;DHT22;6746;50.892;4.064;2024-03-23T02:28:46;7.70;99.90
13354;DHT22;6746;50.892;4.064;2024-03-23T02:31:24;7.70;99.90
13354;DHT22;6746;50.892;4.064;2024-03-23T02:34:02;7.70;99.90
13354;DHT22;6746;50.892;4.064;2024-03-23T02:36:40;7.70;99.90
13354;DHT22;6746;50.892;4.064;2024-03-23T02:39:18;7.70;99.90
13354;DHT22;6746;50.892;4.064;2024-03-23T02:41:57;7.60;99.90
13354;DHT22;6746;50.892;4.064;2024-03-23T02:44:38;7.60;99.90
13354;DHT22;6746;50.892;4.064;2024-03-23T02:47:16;7.60;99.90
13354;DHT22;6746;50.892;4.064;2024-03-23T02:49:54;7.60;99.90
13354;DHT22;6746;50.892;4.064;2024-03-23T02:52:32;7.60;99.90
13354;DHT22;6746;50.892;4.064;2024-03-23T02:55:13;7.50;99.90
13354;DHT22;6746;50.892;4.064;2024-03-23T02:57:51;7.50;99.90
13354;DHT22;6746;50.892;4.064;2024-03-23T03:00:30;7.50;99.90
13354;DHT22;6746;50.892;4.064;2024-03-23T03:03:08;7.50;99.90
13354;DHT22;6746;50.892;4.064;2024-03-23T03:05:46;7.50;99.90
13354;DHT22;6746;50.892;4.064;2024-03-23T03:08:25;7.40;99.90
13354;DHT22;6746;50.892;4.064;2024-03-23T03:11:03;7.40;99.90
13354;DHT22;6746;50.892;4.064;2024-03-23T03:13:41;7.30;99.90
13354;DHT22;6746;50.892;4.064;2024-03-23T03:16:22;7.30;99.90
13354;DHT22;6746;50.892;4.064;2024-03-23T03:19:00;7.20;99.90
13354;DHT22;6746;50.892;4.064;2024-03-23T03:21:41;7.20;99.90
13354;DHT22;6746;50.892;4.064;2024-03-23T03:24:19;7.10;99.90
13354;DHT22;6746;50.892;4.064;2024-03-23T03:27:00;7.20;99.90
13354;DHT22;6746;50.892;4.064;2024-03-23T03:29:39;7.10;99.90
13354;DHT22;6746;50.892;4.064;2024-03-23T03:32:26;7.00;99.90
13354;DHT22;6746;50.892;4.064;2024-03-23T03:35:14;6.90;99.90
13354;DHT22;6746;50.892;4.064;2024-03-23T03:38:03;6.90;99.90
13354;DHT22;6746;50.892;4.064;2024-03-23T03:40:44;6.80;99.90
13354;DHT22;6746;50.892;4.064;2024-03-23T03:43:23;6.70;99.90
13354;DHT22;6746;50.892;4.064;2024-03-23T03:46:01;6.70;99.90
13354;DHT22;6746;50.892;4.064;2024-03-23T03:48:39;6.70;99.90
13354;DHT22;6746;50.892;4.064;2024-03-23T03:51:17;6.70;99.90
13354;DHT22;6746;50.892;4.064;2024-03-23T03:53:56;6.70;99.90
13354;DHT22;6746;50.892;4.064;2024-03-23T03:56:34;6.70;99.90
13354;DHT22;6746;50.892;4.064;2024-03-23T03:59:12;6.70;99.90
13354;DHT22;6746;50.892;4.064;2024-03-23T04:01:51;6.60;99.90
13354;DHT22;6746;50.892;4.064;2024-03-23T04:04:28;6.60;99.90
13354;DHT22;6746;50.892;4.064;2024-03-23T04:07:07;6.60;99.90
13354;DHT22;6746;50.892;4.064;2024-03-23T04:09:47;6.60;99.90
13354;DHT22;6746;50.892;4.064;2024-03-23T04:12:33;6.50;99.90
13354;DHT22;6746;50.892;4.064;2024-03-23T04:15:11;6.60;99.90
13354;DHT22;6746;50.892;4.064;2024-03-23T04:17:54;6.60;99.90
13354;DHT22;6746;50.892;4.064;2024-03-23T04:20:32;6.70;99.90
13354;DHT22;6746;50.892;4.064;2024-03-23T04:23:11;6.70;99.90
13354;DHT22;6746;50.892;4.064;2024-03-23T04:25:49;6.80;99.90
13354;DHT22;6746;50.892;4.064;2024-03-23T04:28:27;6.80;99.90
13354;DHT22;6746;50.892;4.064;2024-03-23T04:31:05;6.70;99.90
13354;DHT22;6746;50.892;4.064;2024-03-23T04:33:44;6.60;99.90
13354;DHT22;6746;50.892;4.064;2024-03-23T04:36:22;6.60;99.90
13354;DHT22;6746;50.892;4.064;2024-03-23T04:39:10;6.60;99.90
13354;DHT22;6746;50.892;4.064;2024-03-23T04:41:58;6.50;99.90
13354;DHT22;6746;50.892;4.064;2024-03-23T04:44:46;6.50;99.90
13354;DHT22;6746;50.892;4.064;2024-03-23T04:47:30;6.50;99.90
13354;DHT22;6746;50.892;4.064;2024-03-23T04:50:09;6.50;99.90
13354;DHT22;6746;50.892;4.064;2024-03-23T04:52:59;6.50;99.90
13354;DHT22;6746;50.892;4.064;2024-03-23T04:55:43;6.50;99.90
13354;DHT22;6746;50.892;4.064;2024-03-23T04:58:22;6.50;99.90
13354;DHT22;6746;50.892;4.064;2024-03-23T05:01:00;6.50;99.90
13354;DHT22;6746;50.892;4.064;2024-03-23T05:03:38;6.50;99.90
13354;DHT22;6746;50.892;4.064;2024-03-23T05:06:19;6.50;99.90
13354;DHT22;6746;50.892;4.064;2024-03-23T05:08:57;6.50;99.90
13354;DHT22;6746;50.892;4.064;2024-03-23T05:11:35;6.50;99.90
13354;DHT22;6746;50.892;4.064;2024-03-23T05:14:14;6.50;99.90
13354;DHT22;6746;50.892;4.064;2024-03-23T05:16:52;6.50;99.90
13354;DHT22;6746;50.892;4.064;2024-03-23T05:19:30;6.50;99.90
13354;DHT22;6746;50.892;4.064;2024-03-23T05:22:13;6.50;99.90
13354;DHT22;6746;50.892;4.064;2024-03-23T05:24:52;6.50;99.90
13354;DHT22;6746;50.892;4.064;2024-03-23T05:27:31;6.50;99.90
13354;DHT22;6746;50.892;4.064;2024-03-23T05:30:08;6.50;99.90
13354;DHT22;6746;50.892;4.064;2024-03-23T05:32:52;6.50;99.90
13354;DHT22;6746;50.892;4.064;2024-03-23T05:35:30;6.50;99.90
13354;DHT22;6746;50.892;4.064;2024-03-23T05:38:08;6.50;99.90
13354;DHT22;6746;50.892;4.064;2024-03-23T05:40:52;6.50;99.90
13354;DHT22;6746;50.892;4.064;2024-03-23T05:43:27;6.50;99.90
13354;DHT22;6746;50.892;4.064;2024-03-23T05:45:59;6.50;99.90
13354;DHT22;6746;50.892;4.064;2024-03-23T05:48:30;6.50;99.90
13354;DHT22;6746;50.892;4.064;2024-03-23T05:50:59;6.50;99.90
13354;DHT22;6746;50.892;4.064;2024-03-23T05:53:34;6.50;99.90
13354;DHT22;6746;50.892;4.064;2024-03-23T05:56:03;6.50;99.90
13354;DHT22;6746;50.892;4.064;2024-03-23T05:58:34;6.50;99.90
13354;DHT22;6746;50.892;4.064;2024-03-23T06:01:03;6.40;99.90
13354;DHT22;6746;50.892;4.064;2024-03-23T06:03:41;6.40;99.90
13354;DHT22;6746;50.892;4.064;2024-03-23T06:06:29;6.40;99.90
13354;DHT22;6746;50.892;4.064;2024-03-23T06:09:07;6.30;99.90
13354;DHT22;6746;50.892;4.064;2024-03-23T06:11:46;6.30;99.90
13354;DHT22;6746;50.892;4.064;2024-03-23T06:14:24;6.40;99.90
13354;DHT22;6746;50.892;4.064;2024-03-23T06:17:02;6.40;99.90
13354;DHT22;6746;50.892;4.064;2024-03-23T06:19:40;6.50;99.90
13354;DHT22;6746;50.892;4.064;2024-03-23T06:22:17;6.50;99.90
13354;DHT22;6746;50.892;4.064;2024-03-23T06:24:45;6.60;99.90
13354;DHT22;6746;50.892;4.064;2024-03-23T06:27:19;6.70;99.90
13354;DHT22;6746;50.892;4.064;2024-03-23T06:29:58;6.70;99.90
13354;DHT22;6746;50.892;4.064;2024-03-23T06:32:39;6.70;99.90
13354;DHT22;6746;50.892;4.064;2024-03-23T06:35:17;6.70;99.90
13354;DHT22;6746;50.892;4.064;2024-03-23T06:37:55;6.80;99.90
13354;DHT22;6746;50.892;4.064;2024-03-23T06:40:35;6.90;99.90
13354;DHT22;6746;50.892;4.064;2024-03-23T06:43:11;6.80;99.90
13354;DHT22;6746;50.892;4.064;2024-03-23T06:45:52;6.50;99.90
13354;DHT22;6746;50.892;4.064;2024-03-23T06:48:26;6.30;99.90
13354;DHT22;6746;50.892;4.064;2024-03-23T06:50:57;6.20;99.90
13354;DHT22;6746;50.892;4.064;2024-03-23T06:53:37;6.20;99.90
13354;DHT22;6746;50.892;4.064;2024-03-23T06:56:15;6.20;99.90
13354;DHT22;6746;50.892;4.064;2024-03-23T06:58:52;6.10;99.90
13354;DHT22;6746;50.892;4.064;2024-03-23T07:01:20;6.10;99.90
13354;DHT22;6746;50.892;4.064;2024-03-23T07:03:57;6.00;99.90
13354;DHT22;6746;50.892;4.064;2024-03-23T07:06:26;6.00;99.90
13354;DHT22;6746;50.892;4.064;2024-03-23T07:09:04;6.00;99.90
13354;DHT22;6746;50.892;4.064;2024-03-23T07:11:42;6.00;99.90
13354;DHT22;6746;50.892;4.064;2024-03-23T07:14:23;6.30;99.90
13354;DHT22;6746;50.892;4.064;2024-03-23T07:16:51;6.50;99.90
13354;DHT22;6746;50.892;4.064;2024-03-23T07:19:29;6.70;99.90
13354;DHT22;6746;50.892;4.064;2024-03-23T07:21:58;7.00;99.90
13354;DHT22;6746;50.892;4.064;2024-03-23T07:24:26;7.10;99.90
13354;DHT22;6746;50.892;4.064;2024-03-23T07:27:03;7.30;99.90
13354;DHT22;6746;50.892;4.064;2024-03-23T07:29:32;7.50;99.90
13354;DHT22;6746;50.892;4.064;2024-03-23T07:32:09;7.60;99.90
13354;DHT22;6746;50.892;4.064;2024-03-23T07:34:37;7.60;99.90
13354;DHT22;6746;50.892;4.064;2024-03-23T07:37:16;7.70;99.90
13354;DHT22;6746;50.892;4.064;2024-03-23T07:39:47;7.80;99.90
13354;DHT22;6746;50.892;4.064;2024-03-23T07:42:16;7.90;99.90
13354;DHT22;6746;50.892;4.064;2024-03-23T07:44:45;8.10;99.90
13354;DHT22;6746;50.892;4.064;2024-03-23T07:47:14;7.90;99.90
13354;DHT22;6746;50.892;4.064;2024-03-23T07:49:43;7.70;99.90
13354;DHT22;6746;50.892;4.064;2024-03-23T07:52:12;7.50;99.90
13354;DHT22;6746;50.892;4.064;2024-03-23T07:54:41;7.70;99.90
13354;DHT22;6746;50.892;4.064;2024-03-23T07:57:10;7.80;99.90
13354;DHT22;6746;50.892;4.064;2024-03-23T07:59:46;7.70;99.90
13354;DHT22;6746;50.892;4.064;2024-03-23T08:02:23;7.80;99.90
13354;DHT22;6746;50.892;4.064;2024-03-23T08:04:52;8.10;99.90
13354;DHT22;6746;50.892;4.064;2024-03-23T08:07:21;8.30;99.90
13354;DHT22;6746;50.892;4.064;2024-03-23T08:09:50;8.30;99.90
13354;DHT22;6746;50.892;4.064;2024-03-23T08:12:19;8.30;99.90
13354;DHT22;6746;50.892;4.064;2024-03-23T08:14:48;8.30;99.90
13354;DHT22;6746;50.892;4.064;2024-03-23T08:17:19;8.40;99.90
13354;DHT22;6746;50.892;4.064;2024-03-23T08:19:48;8.40;99.90
13354;DHT22;6746;50.892;4.064;2024-03-23T08:22:18;8.30;99.90
13354;DHT22;6746;50.892;4.064;2024-03-23T08:24:47;8.50;99.90
13354;DHT22;6746;50.892;4.064;2024-03-23T08:27:16;8.60;99.90
13354;DHT22;6746;50.892;4.064;2024-03-23T08:29:47;8.70;99.90
13354;DHT22;6746;50.892;4.064;2024-03-23T08:32:18;8.80;99.90
13354;DHT22;6746;50.892;4.064;2024-03-23T08:34:58;9.00;99.90
13354;DHT22;6746;50.892;4.064;2024-03-23T08:37:28;8.90;99.90
13354;DHT22;6746;50.892;4.064;2024-03-23T08:39:59;8.90;99.90
13354;DHT22;6746;50.892;4.064;2024-03-23T08:42:27;8.90;99.90
13354;DHT22;6746;50.892;4.064;2024-03-23T08:44:56;8.80;99.90
13354;DHT22;6746;50.892;4.064;2024-03-23T08:47:36;8.70;99.90
13354;DHT22;6746;50.892;4.064;2024-03-23T08:50:07;8.80;99.90
13354;DHT22;6746;50.892;4.064;2024-03-23T08:52:45;8.70;99.90
13354;DHT22;6746;50.892;4.064;2024-03-23T08:55:19;8.60;99.90
13354;DHT22;6746;50.892;4.064;2024-03-23T08:57:47;8.60;99.90
13354;DHT22;6746;50.892;4.064;2024-03-23T09:00:16;8.80;99.90
13354;DHT22;6746;50.892;4.064;2024-03-23T09:02:47;8.80;99.90
13354;DHT22;6746;50.892;4.064;2024-03-23T09:05:24;8.90;99.90
13354;DHT22;6746;50.892;4.064;2024-03-23T09:08:02;8.80;99.90
13354;DHT22;6746;50.892;4.064;2024-03-23T09:10:30;8.80;99.90
13354;DHT22;6746;50.892;4.064;2024-03-23T09:13:00;9.00;99.90
13354;DHT22;6746;50.892;4.064;2024-03-23T09:15:48;9.30;99.90
13354;DHT22;6746;50.892;4.064;2024-03-23T09:18:19;9.30;99.90
13354;DHT22;6746;50.892;4.064;2024-03-23T09:20:48;9.10;99.90
13354;DHT22;6746;50.892;4.064;2024-03-23T09:23:22;9.00;99.90
13354;DHT22;6746;50.892;4.064;2024-03-23T09:25:51;9.10;99.90
13354;DHT22;6746;50.892;4.064;2024-03-23T09:28:25;9.20;99.90
13354;DHT22;6746;50.892;4.064;2024-03-23T09:30:54;9.50;99.90
13354;DHT22;6746;50.892;4.064;2024-03-23T09:33:31;9.50;99.90
13354;DHT22;6746;50.892;4.064;2024-03-23T09:36:03;9.60;99.90
13354;DHT22;6746;50.892;4.064;2024-03-23T09:38:41;9.90;99.90
13354;DHT22;6746;50.892;4.064;2024-03-23T09:41:19;10.00;99.90
13354;DHT22;6746;50.892;4.064;2024-03-23T09:43:57;9.90;99.90
13354;DHT22;6746;50.892;4.064;2024-03-23T09:46:35;9.80;99.90
13354;DHT22;6746;50.892;4.064;2024-03-23T09:49:14;9.60;99.90
13354;DHT22;6746;50.892;4.064;2024-03-23T09:51:44;9.60;99.90
13354;DHT22;6746;50.892;4.064;2024-03-23T09:54:13;9.50;99.90
13354;DHT22;6746;50.892;4.064;2024-03-23T09:56:42;9.50;99.90
13354;DHT22;6746;50.892;4.064;2024-03-23T09:59:11;9.50;99.90
13354;DHT22;6746;50.892;4.064;2024-03-23T10:01:40;9.60;99.90
13354;DHT22;6746;50.892;4.064;2024-03-23T10:04:09;9.70;99.90
13354;DHT22;6746;50.892;4.064;2024-03-23T10:06:41;9.80;99.90
13354;DHT22;6746;50.892;4.064;2024-03-23T10:09:17;9.80;99.90
13354;DHT22;6746;50.892;4.064;2024-03-23T10:12:00;10.00;99.90
13354;DHT22;6746;50.892;4.064;2024-03-23T10:14:31;10.00;99.90
13354;DHT22;6746;50.892;4.064;2024-03-23T10:17:16;9.80;99.90
13354;DHT22;6746;50.892;4.064;2024-03-23T10:19:47;10.00;99.90
13354;DHT22;6746;50.892;4.064;2024-03-23T10:22:18;10.30;99.90
13354;DHT22;6746;50.892;4.064;2024-03-23T10:24:49;11.70;99.90
13354;DHT22;6746;50.892;4.064;2024-03-23T10:27:21;10.40;99.90
13354;DHT22;6746;50.892;4.064;2024-03-23T10:29:59;10.60;99.90
13354;DHT22;6746;50.892;4.064;2024-03-23T10:32:26;10.90;99.90
13354;DHT22;6746;50.892;4.064;2024-03-23T10:35:20;11.30;99.90
13354;DHT22;6746;50.892;4.064;2024-03-23T10:38:00;11.60;99.90
13354;DHT22;6746;50.892;4.064;2024-03-23T10:40:34;11.70;99.90
13354;DHT22;6746;50.892;4.064;2024-03-23T10:43:05;11.70;99.90
13354;DHT22;6746;50.892;4.064;2024-03-23T10:45:37;11.50;99.90
13354;DHT22;6746;50.892;4.064;2024-03-23T10:48:06;11.60;99.90
13354;DHT22;6746;50.892;4.064;2024-03-23T10:50:39;11.70;99.90
13354;DHT22;6746;50.892;4.064;2024-03-23T10:53:08;11.60;99.90
13354;DHT22;6746;50.892;4.064;2024-03-23T10:55:43;11.80;99.90
13354;DHT22;6746;50.892;4.064;2024-03-23T10:58:14;12.00;99.90
13354;DHT22;6746;50.892;4.064;2024-03-23T11:00:48;12.30;99.90
13354;DHT22;6746;50.892;4.064;2024-03-23T11:03:38;12.20;99.90
13354;DHT22;6746;50.892;4.064;2024-03-23T11:09:50;12.40;99.90
13354;DHT22;6746;50.892;4.064;2024-03-23T11:11:57;12.20;99.90
13354;DHT22;6746;50.892;4.064;2024-03-23T11:14:35;12.30;99.90
13354;DHT22;6746;50.892;4.064;2024-03-23T11:17:10;12.30;99.90
13354;DHT22;6746;50.892;4.064;2024-03-23T11:19:39;12.40;99.90
13354;DHT22;6746;50.892;4.064;2024-03-23T11:22:13;12.40;99.90
13354;DHT22;6746;50.892;4.064;2024-03-23T11:24:49;12.60;99.90
13354;DHT22;6746;50.892;4.064;2024-03-23T11:27:15;12.30;99.90
13354;DHT22;6746;50.892;4.064;2024-03-23T11:29:45;12.20;99.90
13354;DHT22;6746;50.892;4.064;2024-03-23T11:32:19;12.10;99.90
13354;DHT22;6746;50.892;4.064;2024-03-23T11:34:51;12.00;99.90
13354;DHT22;6746;50.892;4.064;2024-03-23T11:37:19;12.10;99.90
13354;DHT22;6746;50.892;4.064;2024-03-23T11:39:48;12.30;99.90
13354;DHT22;6746;50.892;4.064;2024-03-23T11:42:24;12.50;99.90
13354;DHT22;6746;50.892;4.064;2024-03-23T11:44:52;12.60;99.90
13354;DHT22;6746;50.892;4.064;2024-03-23T11:47:20;12.40;99.90
13354;DHT22;6746;50.892;4.064;2024-03-23T11:49:49;12.10;99.90
13354;DHT22;6746;50.892;4.064;2024-03-23T11:52:23;12.00;99.90
13354;DHT22;6746;50.892;4.064;2024-03-23T11:54:51;11.90;99.90
13354;DHT22;6746;50.892;4.064;2024-03-23T11:57:21;11.40;99.90
13354;DHT22;6746;50.892;4.064;2024-03-23T11:59:53;10.80;99.90
13354;DHT22;6746;50.892;4.064;2024-03-23T12:02:22;10.60;99.90
13354;DHT22;6746;50.892;4.064;2024-03-23T12:04:51;10.20;99.90
13354;DHT22;6746;50.892;4.064;2024-03-23T12:07:29;9.80;99.90
13354;DHT22;6746;50.892;4.064;2024-03-23T12:10:04;9.70;99.90
13354;DHT22;6746;50.892;4.064;2024-03-23T12:12:34;9.70;99.90
13354;DHT22;6746;50.892;4.064;2024-03-23T12:15:09;9.90;99.90
13354;DHT22;6746;50.892;4.064;2024-03-23T12:17:40;10.20;99.90
13354;DHT22;6746;50.892;4.064;2024-03-23T12:20:28;10.50;99.90
13354;DHT22;6746;50.892;4.064;2024-03-23T12:23:07;10.80;99.90
13354;DHT22;6746;50.892;4.064;2024-03-23T12:25:35;11.00;99.90
13354;DHT22;6746;50.892;4.064;2024-03-23T12:28:04;11.20;99.90
13354;DHT22;6746;50.892;4.064;2024-03-23T12:30:33;11.30;99.90
13354;DHT22;6746;50.892;4.064;2024-03-23T12:33:04;11.30;99.90
13354;DHT22;6746;50.892;4.064;2024-03-23T12:35:43;11.50;99.90
13354;DHT22;6746;50.892;4.064;2024-03-23T12:38:22;11.60;99.90
13354;DHT22;6746;50.892;4.064;2024-03-23T12:40:50;11.50;99.90
13354;DHT22;6746;50.892;4.064;2024-03-23T12:43:19;11.40;99.90
13354;DHT22;6746;50.892;4.064;2024-03-23T12:45:48;11.30;99.90
13354;DHT22;6746;50.892;4.064;2024-03-23T12:48:16;11.30;99.90
13354;DHT22;6746;50.892;4.064;2024-03-23T12:50:45;11.40;99.90
13354;DHT22;6746;50.892;4.064;2024-03-23T12:53:22;11.60;99.90
13354;DHT22;6746;50.892;4.064;2024-03-23T12:55:51;11.50;99.90
13354;DHT22;6746;50.892;4.064;2024-03-23T12:58:19;11.50;99.90
13354;DHT22;6746;50.892;4.064;2024-03-23T13:00:48;11.70;99.90
13354;DHT22;6746;50.892;4.064;2024-03-23T13:03:28;11.60;99.90
13354;DHT22;6746;50.892;4.064;2024-03-23T13:06:00;11.20;99.90
13354;DHT22;6746;50.892;4.064;2024-03-23T13:08:28;11.20;99.90
13354;DHT22;6746;50.892;4.064;2024-03-23T13:10:57;11.00;99.90
13354;DHT22;6746;50.892;4.064;2024-03-23T13:13:36;11.00;99.90
13354;DHT22;6746;50.892;4.064;2024-03-23T13:16:14;11.00;99.90
13354;DHT22;6746;50.892;4.064;2024-03-23T13:18:44;11.00;99.90
13354;DHT22;6746;50.892;4.064;2024-03-23T13:21:13;11.00;99.90
13354;DHT22;6746;50.892;4.064;2024-03-23T13:23:53;11.10;99.90
13354;DHT22;6746;50.892;4.064;2024-03-23T13:26:22;11.10;99.90
13354;DHT22;6746;50.892;4.064;2024-03-23T13:28:55;11.50;99.90
13354;DHT22;6746;50.892;4.064;2024-03-23T13:31:23;11.70;99.90
13354;DHT22;6746;50.892;4.064;2024-03-23T13:34:01;11.90;99.90
13354;DHT22;6746;50.892;4.064;2024-03-23T13:36:35;12.00;99.90
13354;DHT22;6746;50.892;4.064;2024-03-23T13:39:06;12.10;99.90
13354;DHT22;6746;50.892;4.064;2024-03-23T13:41:40;11.90;99.90
13354;DHT22;6746;50.892;4.064;2024-03-23T13:44:11;11.60;99.90
13354;DHT22;6746;50.892;4.064;2024-03-23T13:46:47;11.50;99.90
13354;DHT22;6746;50.892;4.064;2024-03-23T13:49:37;11.30;99.90
13354;DHT22;6746;50.892;4.064;2024-03-23T13:51:54;11.20;99.90
13354;DHT22;6746;50.892;4.064;2024-03-23T13:54:23;11.00;99.90
13354;DHT22;6746;50.892;4.064;2024-03-23T13:57:01;10.90;99.90
13354;DHT22;6746;50.892;4.064;2024-03-23T13:59:39;10.80;99.90
13354;DHT22;6746;50.892;4.064;2024-03-23T14:02:17;10.80;99.90
13354;DHT22;6746;50.892;4.064;2024-03-23T14:04:46;10.80;99.90
13354;DHT22;6746;50.892;4.064;2024-03-23T14:07:15;11.20;99.90
13354;DHT22;6746;50.892;4.064;2024-03-23T14:10:04;11.50;99.90
13354;DHT22;6746;50.892;4.064;2024-03-23T14:12:42;11.60;99.90
13354;DHT22;6746;50.892;4.064;2024-03-23T14:15:20;11.60;99.90
13354;DHT22;6746;50.892;4.064;2024-03-23T14:17:49;11.50;99.90
13354;DHT22;6746;50.892;4.064;2024-03-23T14:20:17;11.40;99.90
13354;DHT22;6746;50.892;4.064;2024-03-23T14:22:56;11.10;99.90
13354;DHT22;6746;50.892;4.064;2024-03-23T14:25:24;11.10;99.90
13354;DHT22;6746;50.892;4.064;2024-03-23T14:27:52;11.20;99.90
13354;DHT22;6746;50.892;4.064;2024-03-23T14:30:41;11.40;99.90
13354;DHT22;6746;50.892;4.064;2024-03-23T14:33:13;11.60;99.90
13354;DHT22;6746;50.892;4.064;2024-03-23T14:35:42;11.80;99.90
13354;DHT22;6746;50.892;4.064;2024-03-23T14:38:13;11.80;99.90
13354;DHT22;6746;50.892;4.064;2024-03-23T14:40:42;11.50;99.90
13354;DHT22;6746;50.892;4.064;2024-03-23T14:43:20;11.50;99.90
13354;DHT22;6746;50.892;4.064;2024-03-23T14:48:51;11.90;99.90
13354;DHT22;6746;50.892;4.064;2024-03-23T14:51:29;12.10;99.90
13354;DHT22;6746;50.892;4.064;2024-03-23T14:54:07;12.30;99.90
13354;DHT22;6746;50.892;4.064;2024-03-23T14:56:45;12.30;99.90
13354;DHT22;6746;50.892;4.064;2024-03-23T14:59:26;12.30;99.90
13354;DHT22;6746;50.892;4.064;2024-03-23T15:02:14;12.00;99.90
13354;DHT22;6746;50.892;4.064;2024-03-23T15:04:45;11.80;99.90
13354;DHT22;6746;50.892;4.064;2024-03-23T15:07:13;11.70;99.90
13354;DHT22;6746;50.892;4.064;2024-03-23T15:09:49;11.90;99.90
13354;DHT22;6746;50.892;4.064;2024-03-23T15:12:18;12.00;99.90
13354;DHT22;6746;50.892;4.064;2024-03-23T15:14:56;12.00;99.90
13354;DHT22;6746;50.892;4.064;2024-03-23T15:17:24;12.00;99.90
13354;DHT22;6746;50.892;4.064;2024-03-23T15:19:55;12.00;99.90
13354;DHT22;6746;50.892;4.064;2024-03-23T15:22:33;12.10;99.90
13354;DHT22;6746;50.892;4.064;2024-03-23T15:25:01;12.30;99.90
13354;DHT22;6746;50.892;4.064;2024-03-23T15:27:30;12.40;99.90
13354;DHT22;6746;50.892;4.064;2024-03-23T15:30:01;12.20;99.90
13354;DHT22;6746;50.892;4.064;2024-03-23T15:32:31;12.10;99.90
13354;DHT22;6746;50.892;4.064;2024-03-23T15:35:00;12.00;99.90
13354;DHT22;6746;50.892;4.064;2024-03-23T15:37:28;12.30;99.90
13354;DHT22;6746;50.892;4.064;2024-03-23T15:40:07;12.40;99.90
13354;DHT22;6746;50.892;4.064;2024-03-23T15:42:36;12.40;99.90
13354;DHT22;6746;50.892;4.064;2024-03-23T15:45:07;12.40;99.90
13354;DHT22;6746;50.892;4.064;2024-03-23T15:47:35;12.40;99.90
13354;DHT22;6746;50.892;4.064;2024-03-23T15:50:14;12.50;99.90
13354;DHT22;6746;50.892;4.064;2024-03-23T15:52:47;12.40;99.90
13354;DHT22;6746;50.892;4.064;2024-03-23T15:55:15;12.20;99.90
13354;DHT22;6746;50.892;4.064;2024-03-23T15:57:44;12.30;99.90
13354;DHT22;6746;50.892;4.064;2024-03-23T16:00:12;12.00;99.90
13354;DHT22;6746;50.892;4.064;2024-03-23T16:02:51;11.80;99.90
13354;DHT22;6746;50.892;4.064;2024-03-23T16:05:19;11.70;99.90
13354;DHT22;6746;50.892;4.064;2024-03-23T16:07:48;11.60;99.90
13354;DHT22;6746;50.892;4.064;2024-03-23T16:10:26;11.50;99.90
13354;DHT22;6746;50.892;4.064;2024-03-23T16:13:04;11.60;99.90
13354;DHT22;6746;50.892;4.064;2024-03-23T16:15:32;11.50;99.90
13354;DHT22;6746;50.892;4.064;2024-03-23T16:18:00;11.50;99.90
13354;DHT22;6746;50.892;4.064;2024-03-23T16:20:34;11.40;99.90
13354;DHT22;6746;50.892;4.064;2024-03-23T16:23:07;11.40;99.90
13354;DHT22;6746;50.892;4.064;2024-03-23T16:25:49;11.40;99.90
13354;DHT22;6746;50.892;4.064;2024-03-23T16:28:17;11.30;99.90
13354;DHT22;6746;50.892;4.064;2024-03-23T16:30:53;11.30;99.90
13354;DHT22;6746;50.892;4.064;2024-03-23T16:33:19;11.30;99.90
13354;DHT22;6746;50.892;4.064;2024-03-23T16:38:31;11.20;99.90
13354;DHT22;6746;50.892;4.064;2024-03-23T16:41:03;11.20;99.90
13354;DHT22;6746;50.892;4.064;2024-03-23T16:43:35;11.20;99.90
13354;DHT22;6746;50.892;4.064;2024-03-23T16:46:04;11.20;99.90
13354;DHT22;6746;50.892;4.064;2024-03-23T16:48:42;11.20;99.90
13354;DHT22;6746;50.892;4.064;2024-03-23T16:51:16;11.20;99.90
13354;DHT22;6746;50.892;4.064;2024-03-23T16:53:44;11.00;99.90
13354;DHT22;6746;50.892;4.064;2024-03-23T16:56:21;11.10;99.90
13354;DHT22;6746;50.892;4.064;2024-03-23T16:58:52;11.00;99.90
13354;DHT22;6746;50.892;4.064;2024-03-23T17:01:29;10.90;99.90
13354;DHT22;6746;50.892;4.064;2024-03-23T17:04:00;10.90;99.90
13354;DHT22;6746;50.892;4.064;2024-03-23T17:06:39;10.80;99.90
13354;DHT22;6746;50.892;4.064;2024-03-23T17:09:07;10.80;99.90
13354;DHT22;6746;50.892;4.064;2024-03-23T17:11:36;10.60;99.90
13354;DHT22;6746;50.892;4.064;2024-03-23T17:14:05;10.50;99.90
13354;DHT22;6746;50.892;4.064;2024-03-23T17:16:34;10.30;99.90
13354;DHT22;6746;50.892;4.064;2024-03-23T17:19:12;9.70;99.90
13354;DHT22;6746;50.892;4.064;2024-03-23T17:21:51;9.50;99.90
13354;DHT22;6746;50.892;4.064;2024-03-23T17:24:37;8.90;99.90
13354;DHT22;6746;50.892;4.064;2024-03-23T17:27:07;8.40;99.90
13354;DHT22;6746;50.892;4.064;2024-03-23T17:29:36;7.70;99.90
13354;DHT22;6746;50.892;4.064;2024-03-23T17:32:14;7.20;99.90
13354;DHT22;6746;50.892;4.064;2024-03-23T17:34:45;6.90;99.90
13354;DHT22;6746;50.892;4.064;2024-03-23T17:37:14;6.80;99.90
13354;DHT22;6746;50.892;4.064;2024-03-23T17:39:45;6.70;99.90
13354;DHT22;6746;50.892;4.064;2024-03-23T17:42:14;6.60;99.90
13354;DHT22;6746;50.892;4.064;2024-03-23T17:44:53;6.40;99.90
13354;DHT22;6746;50.892;4.064;2024-03-23T17:47:22;6.30;99.90